createdAt,value
2019-02-18T00:00:46.642Z,15.70
2019-02-18T00:03:15.096Z,15.70
2019-02-18T00:05:43.767Z,15.40
2019-02-18T00:08:12.153Z,15.90
2019-02-18T00:10:40.539Z,15.20
2019-02-18T00:13:09.244Z,16.53
2019-02-18T00:15:37.768Z,16.50
2019-02-18T00:18:06.183Z,16.13
2019-02-18T00:20:34.671Z,15.17
2019-02-18T00:23:03.080Z,15.60
2019-02-18T00:25:31.489Z,15.10
2019-02-18T00:27:59.879Z,16.37
2019-02-18T00:30:28.619Z,14.97
2019-02-18T00:32:57.298Z,15.87
2019-02-18T00:35:25.691Z,15.70
2019-02-18T00:37:54.463Z,14.77
2019-02-18T00:40:23.246Z,14.90
2019-02-18T00:42:51.942Z,14.87
2019-02-18T00:45:20.629Z,14.23
2019-02-18T00:47:49.025Z,15.20
2019-02-18T00:50:17.481Z,15.60
2019-02-18T00:52:45.889Z,14.87
2019-02-18T00:55:14.268Z,14.60
2019-02-18T00:57:42.662Z,14.97
2019-02-18T01:00:14.563Z,15.10
2019-02-18T01:02:43.386Z,15.40
2019-02-18T01:05:12.262Z,15.07
2019-02-18T01:07:40.801Z,14.53
2019-02-18T01:10:13.627Z,14.63
2019-02-18T01:12:42.319Z,15.70
2019-02-18T01:15:13.189Z,16.50
2019-02-18T01:17:41.539Z,15.00
2019-02-18T01:20:14.908Z,15.30
2019-02-18T01:22:43.318Z,14.10
2019-02-18T01:25:13.422Z,14.90
2019-02-18T01:27:41.829Z,15.40
2019-02-18T01:30:15.516Z,14.77
2019-02-18T01:32:43.982Z,15.07
2019-02-18T01:35:12.908Z,14.93
2019-02-18T01:37:45.864Z,14.80
2019-02-18T01:40:15.316Z,14.90
2019-02-18T01:42:44.001Z,14.60
2019-02-18T01:45:14.069Z,15.27
2019-02-18T01:47:42.484Z,15.30
2019-02-18T01:50:13.490Z,14.37
2019-02-18T01:52:41.949Z,14.37
2019-02-18T01:55:12.172Z,14.40
2019-02-18T01:57:40.823Z,14.07
2019-02-18T02:00:15.071Z,15.67
2019-02-18T02:02:43.469Z,14.80
2019-02-18T02:05:14.121Z,15.30
2019-02-18T02:07:42.614Z,15.27
2019-02-18T02:10:13.240Z,13.93
2019-02-18T02:12:41.693Z,14.80
2019-02-18T02:15:18.816Z,14.57
2019-02-18T02:17:47.270Z,15.43
2019-02-18T02:20:15.673Z,15.23
2019-02-18T02:22:44.093Z,14.40
2019-02-18T02:25:12.486Z,14.80
2019-02-18T02:27:40.910Z,15.53
2019-02-18T02:30:11.012Z,15.10
2019-02-18T02:32:39.468Z,15.23
2019-02-18T02:35:08.183Z,15.23
2019-02-18T02:37:36.866Z,14.40
2019-02-18T02:40:08.491Z,15.17
2019-02-18T02:42:37.210Z,16.03
2019-02-18T02:45:07.531Z,14.27
2019-02-18T02:47:35.919Z,14.50
2019-02-18T02:50:05.557Z,13.73
2019-02-18T02:52:34.207Z,14.67
2019-02-18T02:55:02.601Z,13.70
2019-02-18T02:57:31.108Z,13.80
2019-02-18T02:59:59.860Z,14.00
2019-02-18T03:02:28.272Z,14.30
2019-02-18T03:04:57.024Z,14.73
2019-02-18T03:07:25.731Z,14.33
2019-02-18T03:09:54.156Z,13.20
2019-02-18T03:12:22.544Z,13.50
2019-02-18T03:14:51.357Z,13.90
2019-02-18T03:17:19.909Z,14.50
2019-02-18T03:19:48.622Z,14.23
2019-02-18T03:22:17.036Z,14.50
2019-02-18T03:25:19.560Z,13.77
2019-02-18T03:27:50.112Z,14.67
2019-02-18T03:30:33.774Z,13.87
2019-02-18T03:33:02.377Z,14.27
2019-02-18T03:35:30.752Z,13.80
2019-02-18T03:37:59.481Z,15.77
2019-02-18T03:40:27.879Z,15.87
2019-02-18T03:42:56.281Z,17.53
2019-02-18T03:45:24.677Z,13.27
2019-02-18T03:47:53.064Z,13.50
2019-02-18T03:50:21.714Z,13.47
2019-02-18T03:52:50.116Z,14.10
2019-02-18T03:55:18.776Z,13.40
2019-02-18T03:57:47.271Z,13.10
2019-02-18T04:00:15.868Z,13.50
2019-02-18T04:02:44.246Z,13.90
2019-02-18T04:05:12.639Z,13.77
2019-02-18T04:07:41.032Z,13.37
2019-02-18T04:10:11.070Z,13.93
2019-02-18T04:12:39.467Z,13.10
2019-02-18T04:15:11.228Z,13.50
2019-02-18T04:17:39.708Z,13.63
2019-02-18T04:20:08.747Z,14.40
2019-02-18T04:22:37.135Z,12.40
2019-02-18T04:25:07.079Z,14.17
2019-02-18T04:27:35.792Z,13.43
2019-02-18T04:30:09.732Z,13.50
2019-02-18T04:32:38.118Z,13.37
2019-02-18T04:35:08.354Z,13.67
2019-02-18T04:37:36.913Z,13.50
2019-02-18T04:40:08.466Z,11.97
2019-02-18T04:42:36.992Z,13.60
2019-02-18T04:45:08.062Z,12.90
2019-02-18T04:47:36.491Z,13.20
2019-02-18T04:50:06.312Z,12.60
2019-02-18T04:52:34.937Z,12.50
2019-02-18T04:55:04.188Z,12.80
2019-02-18T04:57:32.585Z,12.73
2019-02-18T05:00:01.304Z,12.40
2019-02-18T05:02:29.987Z,12.13
2019-02-18T05:04:58.390Z,14.10
2019-02-18T05:07:27.055Z,13.70
2019-02-18T05:09:55.764Z,12.00
2019-02-18T05:12:24.229Z,12.33
2019-02-18T05:14:52.913Z,13.43
2019-02-18T05:17:21.701Z,13.10
2019-02-18T05:19:50.086Z,13.43
2019-02-18T05:22:18.509Z,15.03
2019-02-18T05:24:46.911Z,12.60
2019-02-18T05:27:15.301Z,12.60
2019-02-18T05:29:43.691Z,12.50
2019-02-18T05:32:12.088Z,12.80
2019-02-18T05:34:40.533Z,11.27
2019-02-18T05:37:08.930Z,12.50
2019-02-18T05:39:37.316Z,11.70
2019-02-18T05:42:06.000Z,11.60
2019-02-18T05:44:34.400Z,12.20
2019-02-18T05:47:03.062Z,11.40
2019-02-18T05:49:31.479Z,12.00
2019-02-18T05:51:59.849Z,11.43
2019-02-18T05:54:28.272Z,11.33
2019-02-18T05:56:56.916Z,11.77
2019-02-18T05:59:25.339Z,13.20
2019-02-18T06:01:53.713Z,12.20
2019-02-18T06:04:22.124Z,12.33
2019-02-18T06:06:50.899Z,11.20
2019-02-18T06:09:29.076Z,12.23
2019-02-18T06:11:49.510Z,14.47
2019-02-18T06:14:17.901Z,11.57
2019-02-18T06:16:46.303Z,11.20
2019-02-18T06:19:14.790Z,11.07
2019-02-18T06:21:43.194Z,11.20
2019-02-18T06:24:11.577Z,11.73
2019-02-18T06:26:39.990Z,12.03
2019-02-18T06:29:08.372Z,11.23
2019-02-18T06:31:36.775Z,11.77
2019-02-18T06:34:05.232Z,11.93
2019-02-18T06:36:33.626Z,11.00
2019-02-18T06:39:02.027Z,11.30
2019-02-18T06:41:30.457Z,11.93
2019-02-18T06:43:59.157Z,11.60
2019-02-18T06:46:32.252Z,11.90
2019-02-18T06:49:14.539Z,11.60
2019-02-18T06:51:43.062Z,16.23
2019-02-18T06:54:11.451Z,11.33
2019-02-18T06:56:56.797Z,11.70
2019-02-18T06:59:36.129Z,11.07
2019-02-18T07:02:06.262Z,11.47
2019-02-18T07:04:36.573Z,12.10
2019-02-18T07:07:06.905Z,11.30
2019-02-18T07:09:54.934Z,11.20
2019-02-18T07:12:24.984Z,11.47
2019-02-18T07:14:53.378Z,11.53
2019-02-18T07:17:21.824Z,11.43
2019-02-18T07:19:50.505Z,11.63
2019-02-18T07:22:18.891Z,11.30
2019-02-18T07:24:47.296Z,11.43
2019-02-18T07:27:15.765Z,12.40
2019-02-18T07:29:44.424Z,12.13
2019-02-18T07:32:12.837Z,12.50
2019-02-18T07:34:41.489Z,11.43
2019-02-18T07:37:10.181Z,12.60
2019-02-18T07:39:38.872Z,12.43
2019-02-18T07:42:07.273Z,12.27
2019-02-18T07:44:35.928Z,12.00
2019-02-18T07:47:04.641Z,11.50
2019-02-18T07:49:33.301Z,13.93
2019-02-18T07:52:02.003Z,13.10
2019-02-18T07:54:30.401Z,11.47
2019-02-18T07:56:58.982Z,10.90
2019-02-18T07:59:27.414Z,12.47
2019-02-18T08:01:56.237Z,12.20
2019-02-18T08:04:24.910Z,11.50
2019-02-18T08:06:53.592Z,11.43
2019-02-18T08:09:22.283Z,11.97
2019-02-18T08:11:50.971Z,11.93
2019-02-18T08:14:19.960Z,12.40
2019-02-18T08:16:48.346Z,11.30
2019-02-18T08:19:16.738Z,12.90
2019-02-18T08:21:45.400Z,12.43
2019-02-18T08:24:14.088Z,12.00
2019-02-18T08:26:44.195Z,11.73
2019-02-18T08:29:12.749Z,12.10
2019-02-18T08:31:41.202Z,12.17
2019-02-18T08:34:09.558Z,11.70
2019-02-18T08:36:38.236Z,11.83
2019-02-18T08:39:06.908Z,11.83
2019-02-18T08:41:35.602Z,12.77
2019-02-18T08:44:04.302Z,12.03
2019-02-18T08:46:32.705Z,11.97
2019-02-18T08:49:01.360Z,11.40
2019-02-18T08:51:30.050Z,11.73
2019-02-18T08:53:58.769Z,12.73
2019-02-18T08:56:27.420Z,12.77
2019-02-18T08:58:56.211Z,12.30
2019-02-18T09:01:24.999Z,11.73
2019-02-18T09:03:53.392Z,11.30
2019-02-18T09:06:22.096Z,12.10
2019-02-18T09:08:50.783Z,13.10
2019-02-18T09:11:19.243Z,11.77
2019-02-18T09:13:47.748Z,12.60
2019-02-18T09:16:16.401Z,12.50
2019-02-18T09:18:44.781Z,12.13
2019-02-18T09:21:13.206Z,12.60
2019-02-18T09:23:46.200Z,12.57
2019-02-18T09:26:16.362Z,12.90
2019-02-18T09:28:44.849Z,12.73
2019-02-18T09:31:13.538Z,12.10
2019-02-18T09:33:41.938Z,13.07
2019-02-18T09:36:10.601Z,14.00
2019-02-18T09:38:39.060Z,13.53
2019-02-18T09:41:07.771Z,13.47
2019-02-18T09:43:36.447Z,13.60
2019-02-18T09:46:04.913Z,12.30
2019-02-18T09:48:33.327Z,14.00
2019-02-18T09:51:01.997Z,13.10
2019-02-18T09:53:30.395Z,12.80
2019-02-18T09:55:59.163Z,12.53
2019-02-18T09:58:27.565Z,12.63
2019-02-18T10:00:55.952Z,12.50
2019-02-18T10:03:31.511Z,12.23
2019-02-18T10:05:54.529Z,12.70
2019-02-18T10:08:22.943Z,12.67
2019-02-18T10:10:55.765Z,13.37
2019-02-18T10:13:21.453Z,12.93
2019-02-18T10:15:49.844Z,13.33
2019-02-18T10:18:18.574Z,13.30
2019-02-18T10:20:46.972Z,12.73
2019-02-18T10:23:15.461Z,14.47
2019-02-18T10:25:44.221Z,13.27
2019-02-18T10:28:12.909Z,13.93
2019-02-18T10:30:41.303Z,14.50
2019-02-18T10:33:09.699Z,12.80
2019-02-18T10:35:38.160Z,14.07
2019-02-18T10:38:06.561Z,13.10
2019-02-18T10:40:34.955Z,13.50
2019-02-18T10:43:03.357Z,13.43
2019-02-18T10:45:31.764Z,13.60
2019-02-18T10:48:00.228Z,13.80
2019-02-18T10:50:28.616Z,13.80
2019-02-18T10:52:57.822Z,13.40
2019-02-18T10:55:26.513Z,13.40
2019-02-18T10:57:54.933Z,12.60
2019-02-18T11:00:24.020Z,14.57
2019-02-18T11:02:52.408Z,13.10
2019-02-18T11:05:21.054Z,14.67
2019-02-18T11:07:49.747Z,14.33
2019-02-18T11:10:18.834Z,13.97
2019-02-18T11:12:47.851Z,13.23
2019-02-18T11:15:16.190Z,15.13
2019-02-18T11:17:44.968Z,14.40
2019-02-18T11:20:14.815Z,13.97
2019-02-18T11:22:43.205Z,14.07
2019-02-18T11:25:15.503Z,13.53
2019-02-18T11:27:43.909Z,14.10
2019-02-18T11:30:15.579Z,14.43
2019-02-18T11:32:44.285Z,15.13
2019-02-18T11:35:13.018Z,14.37
2019-02-18T11:37:41.758Z,15.17
2019-02-18T11:40:15.340Z,15.00
2019-02-18T11:42:43.800Z,14.30
2019-02-18T11:45:14.097Z,14.17
2019-02-18T11:47:42.498Z,13.70
2019-02-18T11:50:13.476Z,14.53
2019-02-18T11:52:42.034Z,14.07
2019-02-18T11:55:12.283Z,13.90
2019-02-18T11:57:41.122Z,15.03
2019-02-18T12:00:17.362Z,13.67
2019-02-18T12:02:45.747Z,14.30
2019-02-18T12:05:14.607Z,13.77
2019-02-18T12:07:44.424Z,14.60
2019-02-18T12:10:14.084Z,13.80
2019-02-18T12:12:43.037Z,13.63
2019-02-18T12:15:15.293Z,13.90
2019-02-18T12:17:43.762Z,14.73
2019-02-18T12:20:13.927Z,13.60
2019-02-18T12:22:42.356Z,13.50
2019-02-18T12:25:12.336Z,14.53
2019-02-18T12:27:41.093Z,14.20
2019-02-18T12:30:16.883Z,13.03
2019-02-18T12:32:45.624Z,12.70
2019-02-18T12:35:14.305Z,12.60
2019-02-18T12:37:42.708Z,12.40
2019-02-18T12:40:13.149Z,13.10
2019-02-18T12:42:42.536Z,14.17
2019-02-18T12:45:12.664Z,13.30
2019-02-18T12:47:41.127Z,12.67
2019-02-18T12:50:11.064Z,13.50
2019-02-18T12:52:39.739Z,12.50
2019-02-18T12:55:11.861Z,13.90
2019-02-18T12:57:40.463Z,13.67
2019-02-18T13:00:14.970Z,12.90
2019-02-18T13:02:45.005Z,13.20
2019-02-18T13:05:14.171Z,13.20
2019-02-18T13:07:42.617Z,12.67
2019-02-18T13:10:11.738Z,13.00
2019-02-18T13:12:40.417Z,12.17
2019-02-18T13:15:11.845Z,12.53
2019-02-18T13:17:42.566Z,12.40
2019-02-18T13:20:10.449Z,13.50
2019-02-18T13:22:39.312Z,12.67
2019-02-18T13:25:09.233Z,13.03
2019-02-18T13:27:38.015Z,12.67
2019-02-18T13:30:09.746Z,13.30
2019-02-18T13:32:38.141Z,13.30
2019-02-18T13:35:06.862Z,13.07
2019-02-18T13:37:35.614Z,12.87
2019-02-18T13:40:05.263Z,12.60
2019-02-18T13:42:33.651Z,12.50
2019-02-18T13:45:02.532Z,13.60
2019-02-18T13:47:30.946Z,13.53
2019-02-18T13:49:59.330Z,13.30
2019-02-18T13:52:27.734Z,12.90
2019-02-18T13:54:56.428Z,14.03
2019-02-18T13:57:25.110Z,12.50
2019-02-18T13:59:53.505Z,12.90
2019-02-18T14:02:22.174Z,13.53
2019-02-18T14:04:50.586Z,14.70
2019-02-18T14:07:19.004Z,13.40
2019-02-18T14:09:47.505Z,13.30
2019-02-18T14:12:16.501Z,12.43
2019-02-18T14:14:44.906Z,12.37
2019-02-18T14:17:13.644Z,12.90
2019-02-18T14:19:42.024Z,13.00
2019-02-18T14:22:11.086Z,13.93
2019-02-18T14:24:39.737Z,14.07
2019-02-18T14:27:08.225Z,13.83
2019-02-18T14:29:36.618Z,13.40
2019-02-18T14:32:05.368Z,13.30
2019-02-18T14:34:33.775Z,13.43
2019-02-18T14:37:02.174Z,14.10
2019-02-18T14:39:30.955Z,13.03
2019-02-18T14:41:59.419Z,12.70
2019-02-18T14:44:27.814Z,12.50
2019-02-18T14:46:56.266Z,11.80
2019-02-18T14:49:24.655Z,12.60
2019-02-18T14:51:53.110Z,12.07
2019-02-18T14:54:21.662Z,11.83
2019-02-18T14:56:50.129Z,11.63
2019-02-18T14:59:18.528Z,12.27
2019-02-18T15:01:46.929Z,12.17
2019-02-18T15:04:15.724Z,11.90
2019-02-18T15:06:44.122Z,10.90
2019-02-18T15:09:12.504Z,11.50
2019-02-18T15:11:40.904Z,10.97
2019-02-18T15:14:09.307Z,10.23
2019-02-18T15:16:38.362Z,10.30
2019-02-18T15:19:06.808Z,10.50
2019-02-18T15:21:35.195Z,10.10
2019-02-18T15:24:03.592Z,9.43
2019-02-18T15:26:32.060Z,10.63
2019-02-18T15:29:00.608Z,9.47
2019-02-18T15:31:29.015Z,9.47
2019-02-18T15:33:57.408Z,9.60
2019-02-18T15:36:26.068Z,10.40
2019-02-18T15:38:54.471Z,9.20
2019-02-18T15:41:22.857Z,9.50
2019-02-18T15:43:51.270Z,9.00
2019-02-18T15:46:19.663Z,9.60
2019-02-18T15:48:48.124Z,9.00
2019-02-18T15:51:16.762Z,8.80
2019-02-18T15:53:45.155Z,9.10
2019-02-18T15:56:13.784Z,8.60
2019-02-18T15:58:42.173Z,9.47
2019-02-18T16:01:10.628Z,9.43
2019-02-18T16:03:39.018Z,9.73
2019-02-18T16:06:07.681Z,9.47
2019-02-18T16:08:36.678Z,9.80
2019-02-18T16:11:05.360Z,9.60
2019-02-18T16:13:34.044Z,9.40
2019-02-18T16:16:02.464Z,10.70
2019-02-18T16:18:30.903Z,10.10
2019-02-18T16:20:59.319Z,10.60
2019-02-18T16:23:28.077Z,10.33
2019-02-18T16:25:56.545Z,10.40
2019-02-18T16:28:25.027Z,11.60
2019-02-18T16:30:53.481Z,11.60
2019-02-18T16:33:22.203Z,11.37
2019-02-18T16:35:50.589Z,10.20
2019-02-18T16:38:19.203Z,11.03
2019-02-18T16:40:47.624Z,10.47
2019-02-18T16:43:16.912Z,10.80
2019-02-18T16:45:45.641Z,10.73
2019-02-18T16:48:14.408Z,11.07
2019-02-18T16:50:42.810Z,10.90
2019-02-18T16:53:11.520Z,10.70
2019-02-18T16:55:39.947Z,10.67
2019-02-18T16:58:08.332Z,10.20
2019-02-18T17:00:37.501Z,10.53
2019-02-18T17:03:05.942Z,10.70
2019-02-18T17:05:34.333Z,10.17
2019-02-18T17:08:02.731Z,10.30
2019-02-18T17:10:31.577Z,10.90
2019-02-18T17:13:07.896Z,10.70
2019-02-18T17:15:30.383Z,10.57
2019-02-18T17:17:58.768Z,10.60
2019-02-18T17:20:27.181Z,10.00
2019-02-18T17:22:55.570Z,10.67
2019-02-18T17:25:24.427Z,10.67
2019-02-18T17:27:53.021Z,10.53
2019-02-18T17:30:21.682Z,10.77
2019-02-18T17:32:50.370Z,9.50
2019-02-18T17:35:18.777Z,10.53
2019-02-18T17:37:47.159Z,10.30
2019-02-18T17:40:15.716Z,10.10
2019-02-18T17:42:44.700Z,9.83
2019-02-18T17:45:15.899Z,9.33
2019-02-18T17:47:44.279Z,9.50
2019-02-18T17:50:16.898Z,10.97
2019-02-18T17:52:46.296Z,9.60
2019-02-18T17:55:19.501Z,10.20
2019-02-18T17:57:48.187Z,10.47
2019-02-18T18:00:21.536Z,11.07
2019-02-18T18:02:49.941Z,10.30
2019-02-18T18:05:18.595Z,11.63
2019-02-18T18:07:46.998Z,10.13
2019-02-18T18:10:16.125Z,11.60
2019-02-18T18:12:44.807Z,10.60
2019-02-18T18:15:15.733Z,11.40
2019-02-18T18:17:44.361Z,11.00
2019-02-18T18:20:13.984Z,10.17
2019-02-18T18:22:42.379Z,11.50
2019-02-18T18:25:12.692Z,10.93
2019-02-18T18:27:41.090Z,11.03
2019-02-18T18:30:11.972Z,9.80
2019-02-18T18:32:40.590Z,10.70
2019-02-18T18:35:11.013Z,10.83
2019-02-18T18:37:39.554Z,10.77
2019-02-18T18:40:10.747Z,11.03
2019-02-18T18:42:39.126Z,10.47
2019-02-18T18:45:13.146Z,11.63
2019-02-18T18:47:41.531Z,11.63
2019-02-18T18:50:15.886Z,10.43
2019-02-18T18:52:44.823Z,11.67
2019-02-18T18:55:13.216Z,12.87
2019-02-18T18:57:41.650Z,12.50
2019-02-18T19:00:14.575Z,12.90
2019-02-18T19:02:42.966Z,11.97
2019-02-18T19:05:11.634Z,11.67
2019-02-18T19:07:40.339Z,12.17
2019-02-18T19:10:10.079Z,11.20
2019-02-18T19:12:38.778Z,12.70
2019-02-18T19:15:10.825Z,12.17
2019-02-18T19:17:39.210Z,13.10
2019-02-18T19:20:09.105Z,12.07
2019-02-18T19:22:37.673Z,12.60
2019-02-18T19:25:10.820Z,12.83
2019-02-18T19:27:39.631Z,13.57
2019-02-18T19:30:17.164Z,13.23
2019-02-18T19:32:46.087Z,13.40
2019-02-18T19:35:14.469Z,12.83
2019-02-18T19:37:43.101Z,12.90
2019-02-18T19:40:14.219Z,13.07
2019-02-18T19:42:42.647Z,12.47
2019-02-18T19:45:17.315Z,12.87
2019-02-18T19:47:45.717Z,12.67
2019-02-18T19:50:14.248Z,12.73
2019-02-18T19:52:42.736Z,12.40
2019-02-18T19:55:12.387Z,13.03
2019-02-18T19:57:40.873Z,12.33
2019-02-18T20:00:12.365Z,12.40
2019-02-18T20:02:40.789Z,13.27
2019-02-18T20:05:10.225Z,12.60
2019-02-18T20:07:38.703Z,12.17
2019-02-18T20:10:09.827Z,12.37
2019-02-18T20:12:38.278Z,12.87
2019-02-18T20:15:09.724Z,12.17
2019-02-18T20:17:38.109Z,12.90
2019-02-18T20:20:09.518Z,12.33
2019-02-18T20:22:38.223Z,12.47
2019-02-18T20:25:08.051Z,11.53
2019-02-18T20:27:36.608Z,11.80
2019-02-18T20:30:11.262Z,11.90
2019-02-18T20:32:39.654Z,12.70
2019-02-18T20:35:09.476Z,11.80
2019-02-18T20:37:37.876Z,12.27
2019-02-18T20:40:08.017Z,12.40
2019-02-18T20:42:36.501Z,12.03
2019-02-18T20:45:10.481Z,12.70
2019-02-18T20:47:38.943Z,13.40
2019-02-18T20:50:10.585Z,12.50
2019-02-18T20:52:39.046Z,12.07
2019-02-18T20:55:10.405Z,12.50
2019-02-18T20:57:39.768Z,13.50
2019-02-18T21:00:15.580Z,13.50
2019-02-18T21:02:45.565Z,13.33
2019-02-18T21:05:14.017Z,12.90
2019-02-18T21:07:42.443Z,13.23
2019-02-18T21:10:16.775Z,13.70
2019-02-18T21:12:45.171Z,14.30
2019-02-18T21:15:14.005Z,13.40
2019-02-18T21:17:42.388Z,13.83
2019-02-18T21:20:12.526Z,13.33
2019-02-18T21:22:40.984Z,13.90
2019-02-18T21:25:10.756Z,14.23
2019-02-18T21:27:39.461Z,13.33
2019-02-18T21:30:13.220Z,13.13
2019-02-18T21:32:41.617Z,13.37
2019-02-18T21:35:10.386Z,14.43
2019-02-18T21:37:38.764Z,13.40
2019-02-18T21:40:09.608Z,14.30
2019-02-18T21:42:38.050Z,14.00
2019-02-18T21:45:12.320Z,13.43
2019-02-18T21:47:40.750Z,13.77
2019-02-18T21:50:11.293Z,13.17
2019-02-18T21:52:39.948Z,13.47
2019-02-18T21:55:10.529Z,13.53
2019-02-18T21:57:39.214Z,14.07
2019-02-18T22:00:21.413Z,13.83
2019-02-18T22:02:50.434Z,14.57
2019-02-18T22:05:19.386Z,13.33
2019-02-18T22:07:48.090Z,13.40
2019-02-18T22:10:16.778Z,13.80
2019-02-18T22:12:45.243Z,13.40
2019-02-18T22:15:15.249Z,14.40
2019-02-18T22:17:43.645Z,14.07
2019-02-18T22:20:13.569Z,13.80
2019-02-18T22:22:42.206Z,14.40
2019-02-18T22:25:12.028Z,14.20
2019-02-18T22:27:40.491Z,14.20
2019-02-18T22:30:16.410Z,14.50
2019-02-18T22:32:45.114Z,13.63
2019-02-18T22:35:14.285Z,13.90
2019-02-18T22:37:42.695Z,14.10
2019-02-18T22:40:13.220Z,14.53
2019-02-18T22:42:41.632Z,13.67
2019-02-18T22:45:11.559Z,14.13
2019-02-18T22:47:40.235Z,14.07
2019-02-18T22:50:10.958Z,14.13
2019-02-18T22:52:39.629Z,13.47
2019-02-18T22:55:09.823Z,13.30
2019-02-18T22:57:38.211Z,15.10
2019-02-18T23:00:32.428Z,13.87
2019-02-18T23:03:00.833Z,13.70
2019-02-18T23:05:29.215Z,14.10
2019-02-18T23:07:57.604Z,14.53
2019-02-18T23:10:26.007Z,13.40
2019-02-18T23:12:54.387Z,15.50
2019-02-18T23:15:22.782Z,14.00
2019-02-18T23:17:51.452Z,15.10
2019-02-18T23:20:19.844Z,15.50
2019-02-18T23:22:48.427Z,14.27
2019-02-18T23:25:17.125Z,14.03
2019-02-18T23:27:45.509Z,13.90
2019-02-18T23:30:14.163Z,14.00
2019-02-18T23:32:42.946Z,13.20
2019-02-18T23:35:11.626Z,14.90
2019-02-18T23:37:40.090Z,15.50
2019-02-18T23:40:09.009Z,14.67
2019-02-18T23:42:37.416Z,14.40
2019-02-18T23:45:06.036Z,14.13
2019-02-18T23:47:34.420Z,13.60
2019-02-18T23:50:03.338Z,15.13
2019-02-18T23:52:31.749Z,15.83
2019-02-18T23:55:00.410Z,14.60
2019-02-18T23:57:29.703Z,14.57
2019-02-18T23:59:58.392Z,14.50
